Time;durP1;ratioP1;P1;durP2;ratioP2;P2;SDS_P1;SDS_P2;PMS_P1;PMS_P2;Temp;Humidity;BMP_temperature;BMP_pressure;BME280_temperature;BME280_humidity;BME280_pressure;Samples;Min_cycle;Max_cycle;Signal;HPM_P1;HPM_P2
2022/07/09 00:00:03;;;;;;;;;;;;;;;;;;2132312;27;20337;-43
2022/07/09 00:01:04;;;;;;;;;;;;;;;;;;2132085;27;19934;-43
2022/07/09 00:02:05;;;;;;;;;;;;;;;;;;2132120;27;20372;-44
2022/07/09 00:03:06;;;;;;;;;;;;;;;;;;2132335;27;19930;-43
2022/07/09 00:04:07;;;;;;;;;;;;;;;;;;2132183;27;20010;-43
2022/07/09 00:05:07;;;;;;;;;;;;;;;;;;2132328;27;19923;-45
2022/07/09 00:06:13;;;;;;;;;;;;;;;;;;2132165;27;20026;-45
2022/07/09 00:07:14;;;;;;;;;;;;;;;;;;2132221;27;19966;-46
2022/07/09 00:08:15;;;;;;;;;;;;;;;;;;2136999;27;20017;-44
2022/07/09 00:09:16;;;;;;;;;;;;;;;;;;2140605;27;20009;-45
2022/07/09 00:10:17;;;;;;;;;;;;;;;;;;2140926;27;19961;-46
2022/07/09 00:11:18;;;;;;;;;;;;;;;;;;2137239;27;20059;-46
2022/07/09 00:12:19;;;;;;;;;;;;;;;;;;2132092;27;19923;-45
2022/07/09 00:13:19;;;;;;;;;;;;;;;;;;2132190;27;19929;-45
2022/07/09 00:14:20;;;;;;;;;;;;;;;;;;2132146;27;20010;-45
2022/07/09 00:15:21;;;;;;;;;;;;;;;;;;2132126;27;19983;-46
2022/07/09 00:16:22;;;;;;;;;;;;;;;;;;2131939;27;20444;-46
2022/07/09 00:17:23;;;;;;;;;;;;;;;;;;2132223;27;20002;-44
2022/07/09 00:18:24;;;;;;;;;;;;;;;;;;2132032;27;19927;-45
2022/07/09 00:19:25;;;;;;;;;;;;;;;;;;2132090;27;19967;-46
2022/07/09 00:20:26;;;;;;;;;;;;;;;;;;2132240;27;20433;-45
2022/07/09 00:21:26;;;;;;;;;;;;;;;;;;2131918;27;20027;-45
2022/07/09 00:22:27;;;;;;;;;;;;;;;;;;2132089;27;20011;-45
2022/07/09 00:23:28;;;;;;;;;;;;;;;;;;2131994;27;19968;-46
2022/07/09 00:24:29;;;;;;;;;;;;;;;;;;2131992;27;19929;-46
2022/07/09 00:25:30;;;;;;;;;;;;;;;;;;2131980;27;20365;-45
2022/07/09 00:26:31;;;;;;;;;;;;;;;;;;2132105;27;19923;-45
2022/07/09 00:27:32;;;;;;;;;;;;;;;;;;2132008;27;20017;-45
2022/07/09 00:28:33;;;;;;;;;;;;;;;;;;2132141;27;19968;-45
2022/07/09 00:29:34;;;;;;;;;;;;;;;;;;2131954;27;20375;-46
2022/07/09 00:30:35;;;;;;;;;;;;;;;;;;2132089;27;19952;-46
2022/07/09 00:31:35;;;;;;;;;;;;;;;;;;2132048;27;19931;-45
2022/07/09 00:32:36;;;;;;;;;;;;;;;;;;2132034;27;20418;-45
2022/07/09 00:33:37;;;;;;;;;;;;;;;;;;2131964;27;20353;-47
2022/07/09 00:34:38;;;;;;;;;;;;;;;;;;2131896;27;19923;-45
2022/07/09 00:35:39;;;;;;;;;;;;;;;;;;2131957;27;20450;-45
2022/07/09 00:36:40;;;;;;;;;;;;;;;;;;2131865;27;19923;-45
2022/07/09 00:37:41;;;;;;;;;;;;;;;;;;2131984;27;20017;-46
2022/07/09 00:38:42;;;;;;;;;;;;;;;;;;2132028;27;20323;-45
2022/07/09 00:39:42;;;;;;;;;;;;;;;;;;2132062;27;20296;-47
2022/07/09 00:40:43;;;;;;;;;;;;;;;;;;2131922;27;19933;-45
2022/07/09 00:41:44;;;;;;;;;;;;;;;;;;2131933;27;20021;-45
2022/07/09 00:42:45;;;;;;;;;;;;;;;;;;2131843;27;20388;-45
2022/07/09 00:43:47;;;;;;;;;;;;;;;;;;2132030;27;19922;-44
2022/07/09 00:44:48;;;;;;;;;;;;;;;;;;2131934;27;20032;-43
2022/07/09 00:45:48;;;;;;;;;;;;;;;;;;2131821;27;19923;-44
2022/07/09 00:46:49;;;;;;;;;;;;;;;;;;2131779;27;19988;-43
2022/07/09 00:47:50;;;;;;;;;;;;;;;;;;2132177;27;19923;-44
2022/07/09 00:48:51;;;;;;;;;;;;;;;;;;2132045;27;19923;-43
2022/07/09 00:49:52;;;;;;;;;;;;;;;;;;2131895;27;20006;-43
2022/07/09 00:50:53;;;;;;;;;;;;;;;;;;2131890;27;20059;-43
2022/07/09 00:51:54;;;;;;;;;;;;;;;;;;2132037;27;20025;-45
2022/07/09 00:52:55;;;;;;;;;;;;;;;;;;2131802;27;19923;-46
2022/07/09 00:53:55;;;;;;;;;;;;;;;;;;2131852;27;19946;-45
2022/07/09 00:54:56;;;;;;;;;;;;;;;;;;2131789;27;19933;-45
2022/07/09 00:55:57;;;;;;;;;;;;;;;;;;2131872;27;19930;-45
2022/07/09 00:56:58;;;;;;;;;;;;;;;;;;2131795;27;19923;-45
2022/07/09 00:57:59;;;;;;;;;;;;;;;;;;2131897;27;19927;-44
2022/07/09 00:59:00;;;;;;;;;;;;;;;;;;2131809;27;20367;-45
2022/07/09 01:00:01;;;;;;;;;;;;;;;;;;2131912;27;20018;-45
2022/07/09 01:01:02;;;;;;;;;;;;;;;;;;2131917;27;20026;-44
2022/07/09 01:02:02;;;;;;;;;;;;;;;;;;2131784;27;20330;-45
2022/07/09 01:03:03;;;;;;;;;;;;;;;;;;2131693;27;19930;-43
2022/07/09 01:04:05;;;;;;;;;;;;;;;;;;2132887;27;20197;-43
2022/07/09 01:05:05;;;;;;;;;;;;;;;;;;2140400;27;20010;-44
2022/07/09 01:06:06;;;;;;;;;;;;;;;;;;2139798;27;19930;-43
2022/07/09 01:07:07;;;;;;;;;;;;;;;;;;2140559;27;19930;-46
2022/07/09 01:08:08;;;;;;;;;;;;;;;;;;2140363;27;19930;-46
2022/07/09 01:09:09;;;;;;;;;;;;;;;;;;2140531;27;19957;-47
2022/07/09 01:10:10;;;;;;;;;;;;;;;;;;2140356;27;19923;-45
2022/07/09 01:11:11;;;;;;;;;;;;;;;;;;2137911;27;19956;-45
2022/07/09 01:12:11;;;;;;;;;;;;;;;;;;2131853;27;20083;-45
2022/07/09 01:13:12;;;;;;;;;;;;;;;;;;2131704;27;20524;-47
2022/07/09 01:14:13;;;;;;;;;;;;;;;;;;2131799;27;19926;-45
2022/07/09 01:15:14;;;;;;;;;;;;;;;;;;2131647;27;19927;-45
2022/07/09 01:16:15;;;;;;;;;;;;;;;;;;2131627;27;20035;-44
2022/07/09 01:17:17;;;;;;;;;;;;;;;;;;2131660;27;19929;-45
2022/07/09 01:18:18;;;;;;;;;;;;;;;;;;2131835;27;19962;-44
2022/07/09 01:19:19;;;;;;;;;;;;;;;;;;2131620;27;19931;-47
2022/07/09 01:20:20;;;;;;;;;;;;;;;;;;2131733;27;19923;-45
2022/07/09 01:21:21;;;;;;;;;;;;;;;;;;2131729;27;20010;-46
2022/07/09 01:22:21;;;;;;;;;;;;;;;;;;2131687;27;19929;-45
2022/07/09 01:23:22;;;;;;;;;;;;;;;;;;2131901;27;19930;-43
2022/07/09 01:24:23;;;;;;;;;;;;;;;;;;2131624;27;20422;-44
2022/07/09 01:25:24;;;;;;;;;;;;;;;;;;2131846;27;19934;-44
2022/07/09 01:26:25;;;;;;;;;;;;;;;;;;2131660;27;20013;-43
2022/07/09 01:27:26;;;;;;;;;;;;;;;;;;2131929;27;20272;-43
2022/07/09 01:28:26;;;;;;;;;;;;;;;;;;2131584;27;19987;-44
2022/07/09 01:29:27;;;;;;;;;;;;;;;;;;2131707;27;19929;-43
2022/07/09 01:30:28;;;;;;;;;;;;;;;;;;2131666;27;20010;-44
2022/07/09 01:31:29;;;;;;;;;;;;;;;;;;2131565;27;19922;-43
2022/07/09 01:32:30;;;;;;;;;;;;;;;;;;2131520;27;20017;-43
2022/07/09 01:33:31;;;;;;;;;;;;;;;;;;2131620;27;19931;-44
2022/07/09 01:34:32;;;;;;;;;;;;;;;;;;2131576;27;19969;-43
2022/07/09 01:35:33;;;;;;;;;;;;;;;;;;2131600;27;19923;-43
2022/07/09 01:36:34;;;;;;;;;;;;;;;;;;2131503;27;19927;-44
2022/07/09 01:37:35;;;;;;;;;;;;;;;;;;2131581;27;19923;-43
2022/07/09 01:38:36;;;;;;;;;;;;;;;;;;2131734;27;19948;-43
2022/07/09 01:39:49;;;;;;;;;;;;;;;;;;2131609;27;19962;-43
2022/07/09 01:40:50;;;;;;;;;;;;;;;;;;2131710;27;19983;-43
2022/07/09 01:41:51;;;;;;;;;;;;;;;;;;2131474;27;19939;-44
2022/07/09 01:42:52;;;;;;;;;;;;;;;;;;2131568;27;19923;-44
2022/07/09 01:43:53;;;;;;;;;;;;;;;;;;2131736;27;19953;-43
2022/07/09 01:44:54;;;;;;;;;;;;;;;;;;2131773;27;20000;-43
2022/07/09 01:45:55;;;;;;;;;;;;;;;;;;2131541;27;20002;-43
2022/07/09 01:46:55;;;;;;;;;;;;;;;;;;2131473;27;19926;-45
2022/07/09 01:47:57;;;;;;;;;;;;;;;;;;2131528;27;19971;-43
2022/07/09 01:48:57;;;;;;;;;;;;;;;;;;2131525;27;20023;-45
2022/07/09 01:49:58;;;;;;;;;;;;;;;;;;2131618;27;19929;-44
2022/07/09 01:50:59;;;;;;;;;;;;;;;;;;2131355;27;19924;-44
2022/07/09 01:52:00;;;;;;;;;;;;;;;;;;2131646;27;19975;-43
2022/07/09 01:53:01;;;;;;;;;;;;;;;;;;2131503;27;19956;-43
2022/07/09 01:54:02;;;;;;;;;;;;;;;;;;2131438;27;20331;-43
2022/07/09 01:55:03;;;;;;;;;;;;;;;;;;2131577;27;19955;-43
2022/07/09 01:56:04;;;;;;;;;;;;;;;;;;2131659;27;19991;-44
2022/07/09 01:57:04;;;;;;;;;;;;;;;;;;2131567;27;19927;-43
2022/07/09 01:58:05;;;;;;;;;;;;;;;;;;2131390;27;20333;-43
2022/07/09 01:59:06;;;;;;;;;;;;;;;;;;2131434;27;19923;-43
2022/07/09 02:00:08;;;;;;;;;;;;;;;;;;2131505;27;19922;-44
2022/07/09 02:01:08;;;;;;;;;;;;;;;;;;2139566;27;20017;-46
2022/07/09 02:02:09;;;;;;;;;;;;;;;;;;2139993;27;19929;-43
2022/07/09 02:03:10;;;;;;;;;;;;;;;;;;2140145;27;19923;-43
2022/07/09 02:04:11;;;;;;;;;;;;;;;;;;2140231;27;20351;-45
2022/07/09 02:05:12;;;;;;;;;;;;;;;;;;2140159;27;20014;-43
2022/07/09 02:06:13;;;;;;;;;;;;;;;;;;2139977;27;19923;-43
2022/07/09 02:07:14;;;;;;;;;;;;;;;;;;2139971;27;19923;-43
2022/07/09 02:08:15;;;;;;;;;;;;;;;;;;2140037;27;19927;-44
2022/07/09 02:09:17;;;;;;;;;;;;;;;;;;2139905;27;20017;-43
2022/07/09 02:10:18;;;;;;;;;;;;;;;;;;2140363;27;20351;-45
2022/07/09 02:11:19;;;;;;;;;;;;;;;;;;2136508;27;19966;-46
2022/07/09 02:12:20;;;;;;;;;;;;;;;;;;2131292;27;19931;-46
2022/07/09 02:13:20;;;;;;;;;;;;;;;;;;2131498;27;20434;-45
2022/07/09 02:14:21;;;;;;;;;;;;;;;;;;2131413;27;20010;-44
2022/07/09 02:15:23;;;;;;;;;;;;;;;;;;2131226;27;19923;-45
2022/07/09 02:16:24;;;;;;;;;;;;;;;;;;2131635;27;20047;-45
2022/07/09 02:17:24;;;;;;;;;;;;;;;;;;2131624;27;19934;-47
2022/07/09 02:18:25;;;;;;;;;;;;;;;;;;2132502;27;19923;-45
2022/07/09 02:19:26;;;;;;;;;;;;;;;;;;2132856;27;20303;-45
2022/07/09 02:20:27;;;;;;;;;;;;;;;;;;2132885;27;19923;-44
2022/07/09 02:21:28;;;;;;;;;;;;;;;;;;2132757;27;19946;-45
2022/07/09 02:22:29;;;;;;;;;;;;;;;;;;2132702;27;19923;-45
2022/07/09 02:23:30;;;;;;;;;;;;;;;;;;2133030;27;19966;-45
2022/07/09 02:24:31;;;;;;;;;;;;;;;;;;2132886;27;19975;-45
2022/07/09 02:25:31;;;;;;;;;;;;;;;;;;2132958;27;19923;-45
2022/07/09 02:26:32;;;;;;;;;;;;;;;;;;2133142;27;19923;-44
2022/07/09 02:27:33;;;;;;;;;;;;;;;;;;2132761;27;19958;-45
2022/07/09 02:28:34;;;;;;;;;;;;;;;;;;2132855;27;19927;-43
2022/07/09 02:29:35;;;;;;;;;;;;;;;;;;2132797;27;20286;-43
2022/07/09 02:30:36;;;;;;;;;;;;;;;;;;2132829;27;19923;-44
2022/07/09 02:31:37;;;;;;;;;;;;;;;;;;2132687;27;19923;-44
2022/07/09 02:32:39;;;;;;;;;;;;;;;;;;2132891;27;19930;-44
2022/07/09 02:33:39;;;;;;;;;;;;;;;;;;2132814;27;19969;-44
2022/07/09 02:34:41;;;;;;;;;;;;;;;;;;2132811;27;19963;-43
2022/07/09 02:35:42;;;;;;;;;;;;;;;;;;2132838;27;20067;-43
2022/07/09 02:36:44;;;;;;;;;;;;;;;;;;2132759;27;19934;-44
2022/07/09 02:37:45;;;;;;;;;;;;;;;;;;2132828;27;20034;-44
2022/07/09 02:38:46;;;;;;;;;;;;;;;;;;2132885;27;20352;-43
2022/07/09 02:39:47;;;;;;;;;;;;;;;;;;2133074;27;20452;-45
2022/07/09 02:40:48;;;;;;;;;;;;;;;;;;2132694;27;19958;-46
2022/07/09 02:41:48;;;;;;;;;;;;;;;;;;2132761;27;19923;-45
2022/07/09 02:42:49;;;;;;;;;;;;;;;;;;2132606;27;20392;-47
2022/07/09 02:43:50;;;;;;;;;;;;;;;;;;2132732;27;20301;-45
2022/07/09 02:44:51;;;;;;;;;;;;;;;;;;2132682;27;19923;-45
2022/07/09 02:45:55;;;;;;;;;;;;;;;;;;2132647;27;19923;-45
2022/07/09 02:46:55;;;;;;;;;;;;;;;;;;2132989;27;19923;-45
2022/07/09 02:47:56;;;;;;;;;;;;;;;;;;2132873;27;20303;-44
2022/07/09 02:48:57;;;;;;;;;;;;;;;;;;2132565;27;20401;-43
2022/07/09 02:49:58;;;;;;;;;;;;;;;;;;2132658;27;19949;-43
2022/07/09 02:51:00;;;;;;;;;;;;;;;;;;2132705;27;20030;-44
2022/07/09 02:52:01;;;;;;;;;;;;;;;;;;2132754;27;20018;-45
2022/07/09 02:53:02;;;;;;;;;;;;;;;;;;2132746;27;20053;-45
2022/07/09 02:54:03;;;;;;;;;;;;;;;;;;2132660;27;20014;-45
2022/07/09 02:55:04;;;;;;;;;;;;;;;;;;2132740;27;20415;-45
2022/07/09 02:56:05;;;;;;;;;;;;;;;;;;2132570;27;19973;-45
2022/07/09 02:57:08;;;;;;;;;;;;;;;;;;2138428;27;20302;-43
2022/07/09 02:58:08;;;;;;;;;;;;;;;;;;2141088;27;20006;-44
2022/07/09 02:59:09;;;;;;;;;;;;;;;;;;2141394;27;19922;-43
2022/07/09 03:00:10;;;;;;;;;;;;;;;;;;2141506;27;19930;-43
2022/07/09 03:01:11;;;;;;;;;;;;;;;;;;2141076;27;19985;-43
2022/07/09 03:02:12;;;;;;;;;;;;;;;;;;2141425;27;19922;-44
2022/07/09 03:03:13;;;;;;;;;;;;;;;;;;2141087;27;19923;-43
2022/07/09 03:04:14;;;;;;;;;;;;;;;;;;2141353;27;19987;-43
2022/07/09 03:05:15;;;;;;;;;;;;;;;;;;2141602;27;20379;-45
2022/07/09 03:06:15;;;;;;;;;;;;;;;;;;2141285;27;19973;-45
2022/07/09 03:07:17;;;;;;;;;;;;;;;;;;2141211;27;19957;-46
2022/07/09 03:08:18;;;;;;;;;;;;;;;;;;2141270;27;19997;-47
2022/07/09 03:09:19;;;;;;;;;;;;;;;;;;2141357;27;20063;-45
2022/07/09 03:10:20;;;;;;;;;;;;;;;;;;2141229;27;20006;-45
2022/07/09 03:11:21;;;;;;;;;;;;;;;;;;2137213;27;20059;-45
2022/07/09 03:12:22;;;;;;;;;;;;;;;;;;2132714;27;19923;-45
2022/07/09 03:13:23;;;;;;;;;;;;;;;;;;2132578;27;19923;-45
2022/07/09 03:14:23;;;;;;;;;;;;;;;;;;2132506;27;20013;-45
2022/07/09 03:15:24;;;;;;;;;;;;;;;;;;2132446;27;19927;-45
2022/07/09 03:16:25;;;;;;;;;;;;;;;;;;2132345;27;20059;-45
2022/07/09 03:17:26;;;;;;;;;;;;;;;;;;2132656;27;20340;-45
2022/07/09 03:18:27;;;;;;;;;;;;;;;;;;2132831;27;20005;-43
2022/07/09 03:19:28;;;;;;;;;;;;;;;;;;2132482;27;19951;-44
2022/07/09 03:20:29;;;;;;;;;;;;;;;;;;2132482;27;20303;-44
2022/07/09 03:21:30;;;;;;;;;;;;;;;;;;2132404;27;20116;-44
2022/07/09 03:22:31;;;;;;;;;;;;;;;;;;2132419;27;20060;-43
2022/07/09 03:23:32;;;;;;;;;;;;;;;;;;2132404;27;19948;-43
2022/07/09 03:24:33;;;;;;;;;;;;;;;;;;2132468;27;20383;-44
2022/07/09 03:25:34;;;;;;;;;;;;;;;;;;2132529;27;19923;-43
2022/07/09 03:26:34;;;;;;;;;;;;;;;;;;2132681;27;19980;-43
2022/07/09 03:27:35;;;;;;;;;;;;;;;;;;2132287;27;20450;-43
2022/07/09 03:28:36;;;;;;;;;;;;;;;;;;2132330;27;19923;-45
2022/07/09 03:29:38;;;;;;;;;;;;;;;;;;2132388;27;19923;-45
2022/07/09 03:30:39;;;;;;;;;;;;;;;;;;2132358;27;19929;-45
2022/07/09 03:31:40;;;;;;;;;;;;;;;;;;2132696;27;20009;-44
2022/07/09 03:32:40;;;;;;;;;;;;;;;;;;2132339;27;19923;-46
2022/07/09 03:33:42;;;;;;;;;;;;;;;;;;2132567;27;20325;-45
2022/07/09 03:34:43;;;;;;;;;;;;;;;;;;2132316;27;20393;-46
2022/07/09 03:35:43;;;;;;;;;;;;;;;;;;2132522;27;19923;-44
2022/07/09 03:36:44;;;;;;;;;;;;;;;;;;2132232;27;20022;-44
2022/07/09 03:37:45;;;;;;;;;;;;;;;;;;2132452;27;19946;-44
2022/07/09 03:38:46;;;;;;;;;;;;;;;;;;2132361;27;19930;-45
2022/07/09 03:39:47;;;;;;;;;;;;;;;;;;2132451;27;19923;-45
2022/07/09 03:40:48;;;;;;;;;;;;;;;;;;2132379;27;20126;-46
2022/07/09 03:41:49;;;;;;;;;;;;;;;;;;2132421;27;19929;-46
2022/07/09 03:42:50;;;;;;;;;;;;;;;;;;2132367;27;19923;-45
2022/07/09 03:43:50;;;;;;;;;;;;;;;;;;2132183;27;19930;-44
2022/07/09 03:44:51;;;;;;;;;;;;;;;;;;2132273;27;19969;-45
2022/07/09 03:45:52;;;;;;;;;;;;;;;;;;2132206;27;19930;-45
2022/07/09 03:46:53;;;;;;;;;;;;;;;;;;2132388;27;20295;-44
2022/07/09 03:47:54;;;;;;;;;;;;;;;;;;2132366;27;20022;-45
2022/07/09 03:48:55;;;;;;;;;;;;;;;;;;2132277;27;20455;-45
2022/07/09 03:49:56;;;;;;;;;;;;;;;;;;2132264;27;20013;-45
2022/07/09 03:50:57;;;;;;;;;;;;;;;;;;2132275;27;19927;-44
2022/07/09 03:51:57;;;;;;;;;;;;;;;;;;2132199;27;19924;-45
2022/07/09 03:53:14;;;;;;;;;;;;;;;;;;2137031;27;19927;-49
2022/07/09 03:54:15;;;;;;;;;;;;;;;;;;2141106;27;19969;-46
2022/07/09 03:55:16;;;;;;;;;;;;;;;;;;2140857;27;19923;-46
2022/07/09 03:56:19;;;;;;;;;;;;;;;;;;2140878;27;19922;-45
2022/07/09 03:57:20;;;;;;;;;;;;;;;;;;2140794;27;20001;-46
2022/07/09 03:58:21;;;;;;;;;;;;;;;;;;2140810;27;19923;-45
2022/07/09 03:59:22;;;;;;;;;;;;;;;;;;2140825;27;19922;-45
2022/07/09 04:00:23;;;;;;;;;;;;;;;;;;2140957;27;20349;-45
2022/07/09 04:01:24;;;;;;;;;;;;;;;;;;2140627;27;19922;-44
2022/07/09 04:02:25;;;;;;;;;;;;;;;;;;2141022;27;19934;-45
2022/07/09 04:03:26;;;;;;;;;;;;;;;;;;2140807;27;19966;-44
2022/07/09 04:04:26;;;;;;;;;;;;;;;;;;2140768;27;19930;-44
2022/07/09 04:05:27;;;;;;;;;;;;;;;;;;2140998;27;19923;-43
2022/07/09 04:06:29;;;;;;;;;;;;;;;;;;2140797;27;19965;-43
2022/07/09 04:07:30;;;;;;;;;;;;;;;;;;2140872;27;20009;-44
2022/07/09 04:08:31;;;;;;;;;;;;;;;;;;2141012;27;19964;-46
2022/07/09 04:09:32;;;;;;;;;;;;;;;;;;2140763;27;20418;-46
2022/07/09 04:10:33;;;;;;;;;;;;;;;;;;2140736;27;20013;-44
2022/07/09 04:11:34;;;;;;;;;;;;;;;;;;2134965;27;19923;-45
2022/07/09 04:12:35;;;;;;;;;;;;;;;;;;2132028;27;20478;-46
2022/07/09 04:13:36;;;;;;;;;;;;;;;;;;2132177;27;19923;-45
2022/07/09 04:14:36;;;;;;;;;;;;;;;;;;2132229;27;20004;-45
2022/07/09 04:15:37;;;;;;;;;;;;;;;;;;2132314;27;20379;-44
2022/07/09 04:16:38;;;;;;;;;;;;;;;;;;2131932;27;20067;-45
2022/07/09 04:17:39;;;;;;;;;;;;;;;;;;2132107;27;19923;-45
2022/07/09 04:18:42;;;;;;;;;;;;;;;;;;2132099;27;19946;-45
2022/07/09 04:19:43;;;;;;;;;;;;;;;;;;2132013;27;19933;-45
2022/07/09 04:20:44;;;;;;;;;;;;;;;;;;2132165;27;19992;-45
2022/07/09 04:21:45;;;;;;;;;;;;;;;;;;2132129;27;19948;-45
2022/07/09 04:22:45;;;;;;;;;;;;;;;;;;2131892;27;19924;-43
2022/07/09 04:23:47;;;;;;;;;;;;;;;;;;2132026;27;19923;-44
2022/07/09 04:24:47;;;;;;;;;;;;;;;;;;2132189;27;20013;-43
2022/07/09 04:25:50;;;;;;;;;;;;;;;;;;2131890;27;19927;-43
2022/07/09 04:26:51;;;;;;;;;;;;;;;;;;2131932;27;20276;-43
2022/07/09 04:27:52;;;;;;;;;;;;;;;;;;2132101;27;20188;-43
2022/07/09 04:28:53;;;;;;;;;;;;;;;;;;2131861;27;20435;-44
2022/07/09 04:29:54;;;;;;;;;;;;;;;;;;2132164;27;19934;-44
2022/07/09 04:30:54;;;;;;;;;;;;;;;;;;2131911;27;19966;-44
2022/07/09 04:31:55;;;;;;;;;;;;;;;;;;2131926;27;20256;-43
2022/07/09 04:32:56;;;;;;;;;;;;;;;;;;2132043;27;20466;-45
2022/07/09 04:33:57;;;;;;;;;;;;;;;;;;2132009;27;19923;-43
2022/07/09 04:34:58;;;;;;;;;;;;;;;;;;2132020;27;19923;-44
2022/07/09 04:35:59;;;;;;;;;;;;;;;;;;2131993;27;19923;-43
2022/07/09 04:37:00;;;;;;;;;;;;;;;;;;2131872;27;20370;-43
2022/07/09 04:38:01;;;;;;;;;;;;;;;;;;2131932;27;19923;-43
2022/07/09 04:39:01;;;;;;;;;;;;;;;;;;2132042;27;19923;-43
2022/07/09 04:40:03;;;;;;;;;;;;;;;;;;2132021;27;19948;-47
2022/07/09 04:41:04;;;;;;;;;;;;;;;;;;2131252;27;19961;-46
2022/07/09 04:42:05;;;;;;;;;;;;;;;;;;2131897;27;20454;-45
2022/07/09 04:43:06;;;;;;;;;;;;;;;;;;2131880;27;19989;-45
2022/07/09 04:44:07;;;;;;;;;;;;;;;;;;2131868;27;19967;-46
2022/07/09 04:45:08;;;;;;;;;;;;;;;;;;2132050;27;19923;-45
2022/07/09 04:46:10;;;;;;;;;;;;;;;;;;2131799;27;19923;-45
2022/07/09 04:47:10;;;;;;;;;;;;;;;;;;2131842;27;19923;-45
2022/07/09 04:48:11;;;;;;;;;;;;;;;;;;2132055;27;19930;-46
2022/07/09 04:49:12;;;;;;;;;;;;;;;;;;2134062;27;20314;-46
2022/07/09 04:50:13;;;;;;;;;;;;;;;;;;2140558;27;19975;-46
2022/07/09 04:51:14;;;;;;;;;;;;;;;;;;2140535;27;20659;-48
2022/07/09 04:52:19;;;;;;;;;;;;;;;;;;2140602;27;19939;-47
2022/07/09 04:53:20;;;;;;;;;;;;;;;;;;2140397;27;20025;-49
2022/07/09 04:54:21;;;;;;;;;;;;;;;;;;2140728;27;20443;-47
2022/07/09 04:55:22;;;;;;;;;;;;;;;;;;2140441;27;19962;-45
2022/07/09 04:56:23;;;;;;;;;;;;;;;;;;2140311;27;19930;-45
2022/07/09 04:57:23;;;;;;;;;;;;;;;;;;2140598;27;19923;-45
2022/07/09 04:58:24;;;;;;;;;;;;;;;;;;2140574;27;19971;-45
2022/07/09 04:59:25;;;;;;;;;;;;;;;;;;2140578;27;20343;-45
2022/07/09 05:00:26;;;;;;;;;;;;;;;;;;2140631;27;19934;-43
2022/07/09 05:01:29;;;;;;;;;;;;;;;;;;2140318;27;20435;-43
2022/07/09 05:02:30;;;;;;;;;;;;;;;;;;2140334;27;19923;-43
2022/07/09 05:03:31;;;;;;;;;;;;;;;;;;2140341;27;20336;-43
2022/07/09 05:04:32;;;;;;;;;;;;;;;;;;2140428;27;19923;-43
2022/07/09 05:05:33;;;;;;;;;;;;;;;;;;2140613;27;20291;-46
2022/07/09 05:06:42;;;;;;;;;;;;;;;;;;2140295;27;20272;-45
2022/07/09 05:07:43;;;;;;;;;;;;;;;;;;2141089;27;20037;-43
2022/07/09 05:08:44;;;;;;;;;;;;;;;;;;2140239;27;19980;-47
2022/07/09 05:09:45;;;;;;;;;;;;;;;;;;2140678;27;20062;-45
2022/07/09 05:10:46;;;;;;;;;;;;;;;;;;2140478;27;20294;-43
2022/07/09 05:11:47;;;;;;;;;;;;;;;;;;2132421;27;20018;-43
2022/07/09 05:12:48;;;;;;;;;;;;;;;;;;2132283;27;20010;-45
2022/07/09 05:13:49;;;;;;;;;;;;;;;;;;2131869;27;19971;-44
2022/07/09 05:14:50;;;;;;;;;;;;;;;;;;2131607;27;19930;-43
2022/07/09 05:15:50;;;;;;;;;;;;;;;;;;2131989;27;19923;-46
2022/07/09 05:16:51;;;;;;;;;;;;;;;;;;2132161;27;19945;-44
2022/07/09 05:17:52;;;;;;;;;;;;;;;;;;2131666;27;19927;-43
2022/07/09 05:18:53;;;;;;;;;;;;;;;;;;2132366;27;20352;-44
2022/07/09 05:19:54;;;;;;;;;;;;;;;;;;2131946;27;19927;-44
2022/07/09 05:20:55;;;;;;;;;;;;;;;;;;2131686;27;20307;-44
2022/07/09 05:21:56;;;;;;;;;;;;;;;;;;2131926;27;20375;-46
2022/07/09 05:22:57;;;;;;;;;;;;;;;;;;2131783;27;19934;-45
2022/07/09 05:23:59;;;;;;;;;;;;;;;;;;2131537;27;20376;-45
2022/07/09 05:25:00;;;;;;;;;;;;;;;;;;2131836;27;19995;-46
2022/07/09 05:26:01;;;;;;;;;;;;;;;;;;2131872;27;19923;-45
2022/07/09 05:27:03;;;;;;;;;;;;;;;;;;2131699;27;19923;-47
2022/07/09 05:28:04;;;;;;;;;;;;;;;;;;2132328;27;19972;-44
2022/07/09 05:29:05;;;;;;;;;;;;;;;;;;2131600;27;20017;-47
2022/07/09 05:30:06;;;;;;;;;;;;;;;;;;2132079;27;20022;-43
2022/07/09 05:31:07;;;;;;;;;;;;;;;;;;2131500;27;20388;-44
2022/07/09 05:32:28;;;;;;;;;;;;;;;;;;2132004;27;19924;-43
2022/07/09 05:33:29;;;;;;;;;;;;;;;;;;2131735;27;20015;-43
2022/07/09 05:34:30;;;;;;;;;;;;;;;;;;2131978;27;20015;-43
2022/07/09 05:35:31;;;;;;;;;;;;;;;;;;2131871;27;19974;-46
2022/07/09 05:36:32;;;;;;;;;;;;;;;;;;2131524;27;19923;-47
2022/07/09 05:37:32;;;;;;;;;;;;;;;;;;2131695;27;19923;-46
2022/07/09 05:38:33;;;;;;;;;;;;;;;;;;2131811;27;19927;-43
2022/07/09 05:39:35;;;;;;;;;;;;;;;;;;2132280;27;19981;-45
2022/07/09 05:40:36;;;;;;;;;;;;;;;;;;2131503;27;20393;-43
2022/07/09 05:41:36;;;;;;;;;;;;;;;;;;2131701;27;19937;-43
2022/07/09 05:42:37;;;;;;;;;;;;;;;;;;2131425;27;19937;-43
2022/07/09 05:43:38;;;;;;;;;;;;;;;;;;2131530;27;20428;-44
2022/07/09 05:44:39;;;;;;;;;;;;;;;;;;2131676;27;19923;-44
2022/07/09 05:45:40;;;;;;;;;;;;;;;;;;2135717;27;20279;-45
2022/07/09 05:46:41;;;;;;;;;;;;;;;;;;2140189;27;19965;-44
2022/07/09 05:47:42;;;;;;;;;;;;;;;;;;2140348;27;20018;-44
2022/07/09 05:48:43;;;;;;;;;;;;;;;;;;2140204;27;20167;-44
2022/07/09 05:49:45;;;;;;;;;;;;;;;;;;2140453;27;20071;-44
2022/07/09 05:50:46;;;;;;;;;;;;;;;;;;2140156;27;20014;-43
2022/07/09 05:51:46;;;;;;;;;;;;;;;;;;2140163;27;19923;-43
2022/07/09 05:52:47;;;;;;;;;;;;;;;;;;2142210;27;20383;-43
2022/07/09 05:53:48;;;;;;;;;;;;;;;;;;2141759;27;20368;-43
2022/07/09 05:54:49;;;;;;;;;;;;;;;;;;2141702;27;19922;-44
2022/07/09 05:55:50;;;;;;;;;;;;;;;;;;2141854;27;20021;-45
2022/07/09 05:56:51;;;;;;;;;;;;;;;;;;2141647;27;19927;-43
2022/07/09 05:57:52;;;;;;;;;;;;;;;;;;2141859;27;20291;-46
2022/07/09 05:58:53;;;;;;;;;;;;;;;;;;2141601;27;20030;-45
2022/07/09 05:59:53;;;;;;;;;;;;;;;;;;2141814;27;19923;-46
2022/07/09 06:00:54;;;;;;;;;;;;;;;;;;2141522;27;20302;-45
2022/07/09 06:01:55;;;;;;;;;;;;;;;;;;2141681;27;19971;-45
2022/07/09 06:02:56;;;;;;;;;;;;;;;;;;2141905;27;19991;-45
2022/07/09 06:03:57;;;;;;;;;;;;;;;;;;2141766;27;19926;-44
2022/07/09 06:04:58;;;;;;;;;;;;;;;;;;2141624;27;19923;-43
2022/07/09 06:05:59;;;;;;;;;;;;;;;;;;2141543;27;20360;-43
2022/07/09 06:07:00;;;;;;;;;;;;;;;;;;2141715;27;19961;-44
2022/07/09 06:08:00;;;;;;;;;;;;;;;;;;2141549;27;19962;-44
2022/07/09 06:09:01;;;;;;;;;;;;;;;;;;2141601;27;19922;-43
2022/07/09 06:10:02;;;;;;;;;;;;;;;;;;2141993;27;20013;-44
2022/07/09 06:11:03;;;;;;;;;;;;;;;;;;2140223;27;19958;-43
2022/07/09 06:12:04;;;;;;;;;;;;;;;;;;2132995;27;20006;-43
2022/07/09 06:13:05;;;;;;;;;;;;;;;;;;2133110;27;20298;-43
2022/07/09 06:14:05;;;;;;;;;;;;;;;;;;2133343;27;20299;-45
2022/07/09 06:15:06;;;;;;;;;;;;;;;;;;2132874;27;19923;-45
2022/07/09 06:16:07;;;;;;;;;;;;;;;;;;2132951;27;19923;-45
2022/07/09 06:17:08;;;;;;;;;;;;;;;;;;2132819;27;19959;-45
2022/07/09 06:18:09;;;;;;;;;;;;;;;;;;2133267;27;19923;-46
2022/07/09 06:19:10;;;;;;;;;;;;;;;;;;2132799;27;19984;-46
2022/07/09 06:20:11;;;;;;;;;;;;;;;;;;2133143;27;19931;-45
2022/07/09 06:21:12;;;;;;;;;;;;;;;;;;2133304;27;20307;-45
2022/07/09 06:22:13;;;;;;;;;;;;;;;;;;2133102;27;19923;-46
2022/07/09 06:23:14;;;;;;;;;;;;;;;;;;2133102;27;20435;-45
2022/07/09 06:24:14;;;;;;;;;;;;;;;;;;2132903;27;20460;-45
2022/07/09 06:25:15;;;;;;;;;;;;;;;;;;2132994;27;20301;-45
2022/07/09 06:26:16;;;;;;;;;;;;;;;;;;2132868;27;20376;-47
2022/07/09 06:27:17;;;;;;;;;;;;;;;;;;2132988;27;20370;-43
2022/07/09 06:28:19;;;;;;;;;;;;;;;;;;2132669;27;20480;-43
2022/07/09 06:29:20;;;;;;;;;;;;;;;;;;2133159;27;20006;-45
2022/07/09 06:30:20;;;;;;;;;;;;;;;;;;2133009;27;20331;-45
2022/07/09 06:31:22;;;;;;;;;;;;;;;;;;2132780;27;19931;-44
2022/07/09 06:32:23;;;;;;;;;;;;;;;;;;2132956;27;19923;-46
2022/07/09 06:33:24;;;;;;;;;;;;;;;;;;2132971;27;20363;-45
2022/07/09 06:34:25;;;;;;;;;;;;;;;;;;2132752;27;20318;-45
2022/07/09 06:35:26;;;;;;;;;;;;;;;;;;2132896;27;20017;-46
2022/07/09 06:36:27;;;;;;;;;;;;;;;;;;2132871;27;19974;-45
2022/07/09 06:37:28;;;;;;;;;;;;;;;;;;2132872;27;19924;-46
2022/07/09 06:38:29;;;;;;;;;;;;;;;;;;2132931;27;20235;-46
2022/07/09 06:39:45;;;;;;;;;;;;;;;;;;2132904;27;20017;-45
2022/07/09 06:40:46;;;;;;;;;;;;;;;;;;2132816;27;20468;-45
2022/07/09 06:41:46;;;;;;;;;;;;;;;;;;2135444;27;20377;-47
2022/07/09 06:42:48;;;;;;;;;;;;;;;;;;2136094;27;19923;-45
2022/07/09 06:43:48;;;;;;;;;;;;;;;;;;2132601;27;20034;-45
2022/07/09 06:44:49;;;;;;;;;;;;;;;;;;2132989;27;19999;-46
2022/07/09 06:45:50;;;;;;;;;;;;;;;;;;2132799;27;19971;-47
2022/07/09 06:46:51;;;;;;;;;;;;;;;;;;2132825;27;19922;-44
2022/07/09 06:47:52;;;;;;;;;;;;;;;;;;2132943;27;20060;-46
2022/07/09 06:48:53;;;;;;;;;;;;;;;;;;2133042;27;20013;-43
2022/07/09 06:49:54;;;;;;;;;;;;;;;;;;2132616;27;20284;-44
2022/07/09 06:50:55;;;;;;;;;;;;;;;;;;2132585;27;20011;-44
2022/07/09 06:51:56;;;;;;;;;;;;;;;;;;2132721;27;19930;-43
2022/07/09 06:52:57;;;;;;;;;;;;;;;;;;2132527;27;19927;-43
2022/07/09 06:53:58;;;;;;;;;;;;;;;;;;2132830;27;19923;-44
2022/07/09 06:54:59;;;;;;;;;;;;;;;;;;2132832;27;20303;-45
2022/07/09 06:55:59;;;;;;;;;;;;;;;;;;2132466;27;19984;-43
2022/07/09 06:57:01;;;;;;;;;;;;;;;;;;2132645;27;19924;-44